Alsace Manor, Pennsylvania
Current Conditions -  °F | °C
As of 3:54 PM on Friday 24 Oct 2014 (Local Time) from KRDG Reporting Station
Clear Clear  
Wind Chill: 20°   Ceiling: Unl
Heat Index: 20°   Visibility: 10mi
Dew Point:   Wind: 20mph
Humidity: 37%   Direction: 320°NW
Pressure: 29.81"   Gusts: 24mph
Location:  40.4008°N, 75.8851°W
Report Text: KRDG 241954Z 32017G21KT 10SM CLR 20/05 A2981 RMK AO2 SLP100 T02000050
Loading
Personal Weather Stations






























Interactive Weather Map
Tropical Storm Tracking
New forecast layout! Learn more

10-Day Weather Forecast

Advertisements
Track Severe Weather on mobile